»·PEaware :: N7969 KDVT-KHND

N7969 :: KDVT-KHND

FLIGHT INFORMATION

Flight Status: Arrived
Operator: Privately registered:
United States
More flights under this callsign
Pilot: Diana Atalanta G. (28375)
Aircraft: PIPER PA-31/31P NAVAJO CHIEFTAIN
(PA31)
More flights by this aircraft type
Origin: KDVT Phoenix Deer Valley
United States
Destination: KHND Henderson
United States
More flights between these airports :: More routes between these airports
Route: KARLO IGM CRESO
File this flight plan on PilotEdge
Remarks: NONE
Altitude:
(Current/Filed)
10,500ft
Speed:
(Current/Filed)
160kts
Departed: 11-May-23 05:40 PM
Arrived: 11-May-23 07:02 PM
Distance/Time
Traveled:
204nm/1:22
Distance/Time
To Go:
Arrived

Flight Plot

Page will automatically refresh every two minutes.

Flight plan parsing failed; only flown route is shown


Map Options




Map Legend


Flown Route
Filed Route
Departure Airport
Arrival Airport
Navaid (VOR, NDB)
Fix

Horizontal Profiles

Position Reports

Time Latitude Longitude Heading Altitude Ground
Speed
11-May-23 17:27 33.684585 -112.080040 175 1482ft 0kts
11-May-23 17:28 33.684584 -112.080040 175 1482ft 0kts
11-May-23 17:29 33.684583 -112.080040 175 1482ft 0kts
11-May-23 17:30 33.684582 -112.080039 175 1482ft 0kts
11-May-23 17:31 33.684582 -112.080039 175 1482ft 0kts
11-May-23 17:32 33.685146 -112.080023 354 1482ft 16kts
11-May-23 17:33 33.686593 -112.079258 87 1482ft 5kts
11-May-23 17:34 33.687182 -112.077773 77 1482ft 5kts
11-May-23 17:35 33.687306 -112.075355 80 1482ft 1kts
11-May-23 17:35 33.688249 -112.074689 358 1482ft 11kts
11-May-23 17:37 33.688437 -112.074693 356 1482ft 0kts
11-May-23 17:38 33.688437 -112.074693 356 1482ft 0kts
11-May-23 17:39 33.689682 -112.074789 356 1482ft 5kts
11-May-23 17:39 33.689387 -112.083656 262 1508ft 98kts
11-May-23 17:40 33.687146 -112.117143 265 2710ft 109kts
11-May-23 17:42 33.683743 -112.158924 257 4217ft 107kts
11-May-23 17:43 33.695355 -112.191862 341 4789ft 158kts
11-May-23 17:43 33.725915 -112.201723 334 6213ft 134kts
11-May-23 17:44 33.765849 -112.220344 333 6679ft 183kts
11-May-23 17:45 33.813794 -112.245744 334 6735ft 188kts
11-May-23 17:46 33.859259 -112.269189 331 8447ft 167kts
11-May-23 17:47 33.904234 -112.286571 343 9650ft 167kts
11-May-23 17:48 33.947170 -112.303755 336 10572ft 166kts
11-May-23 17:49 33.985820 -112.324207 332 10469ft 187kts
11-May-23 17:50 34.029425 -112.349693 332 10501ft 197kts
11-May-23 17:51 34.077434 -112.377929 332 10528ft 194kts
11-May-23 17:52 34.125493 -112.406401 332 10553ft 190kts
11-May-23 17:53 34.171982 -112.434176 331 10573ft 186kts
11-May-23 17:54 34.218290 -112.462034 331 10587ft 185kts
11-May-23 17:55 34.265337 -112.490498 331 10438ft 187kts
11-May-23 17:56 34.302944 -112.531683 312 10449ft 184kts
11-May-23 17:57 34.341086 -112.573318 318 10457ft 186kts
11-May-23 17:58 34.374741 -112.620579 307 10462ft 186kts
11-May-23 17:59 34.406315 -112.670403 306 10464ft 186kts
11-May-23 18:00 34.438148 -112.719840 309 10472ft 186kts
11-May-23 18:01 34.472913 -112.766044 312 10472ft 186kts
11-May-23 18:02 34.508023 -112.812619 309 10472ft 187kts
11-May-23 18:03 34.541398 -112.861070 309 10480ft 187kts
11-May-23 18:04 34.573822 -112.910664 307 10482ft 187kts
11-May-23 18:05 34.606015 -112.960245 308 10484ft 187kts
11-May-23 18:06 34.638519 -113.009739 309 10488ft 187kts
11-May-23 18:07 34.671368 -113.058920 311 10466ft 189kts
11-May-23 18:08 34.705319 -113.107154 309 10483ft 187kts
11-May-23 18:09 34.739145 -113.155458 310 10562ft 185kts
11-May-23 18:10 34.772643 -113.203957 309 10655ft 182kts
11-May-23 18:11 34.804567 -113.254984 306 10445ft 192kts
11-May-23 18:12 34.834710 -113.303691 308 11549ft 162kts
11-May-23 18:13 34.864123 -113.347305 309 12465ft 171kts
11-May-23 18:14 34.896145 -113.396145 311 12441ft 192kts
11-May-23 18:15 34.928945 -113.447295 311 12464ft 194kts
11-May-23 18:16 34.966818 -113.494059 315 12506ft 194kts
11-May-23 18:17 35.003363 -113.542483 309 12503ft 194kts
11-May-23 18:18 35.035976 -113.595245 306 12500ft 194kts
11-May-23 18:19 35.069075 -113.647359 309 12499ft 194kts
11-May-23 18:20 35.103830 -113.697868 310 12499ft 194kts
11-May-23 18:21 35.137978 -113.749222 309 12500ft 194kts
11-May-23 18:22 35.171634 -113.800194 309 12498ft 193kts
11-May-23 18:23 35.205042 -113.850398 309 12500ft 193kts
11-May-23 18:24 35.238975 -113.901578 309 12502ft 193kts
11-May-23 18:25 35.265102 -113.957542 284 12522ft 195kts
11-May-23 18:26 35.286510 -114.017109 305 12232ft 171kts
11-May-23 18:27 35.310288 -114.067764 297 11916ft 174kts
11-May-23 18:28 35.332661 -114.122045 297 10860ft 181kts
11-May-23 18:29 35.354843 -114.177428 297 9805ft 179kts
11-May-23 18:30 35.381081 -114.229437 303 8872ft 180kts
11-May-23 18:31 35.408467 -114.284622 299 8542ft 190kts
11-May-23 18:32 35.433874 -114.340063 299 8570ft 186kts
11-May-23 18:33 35.459097 -114.395389 299 8562ft 186kts
11-May-23 18:34 35.480195 -114.441900 299 8558ft 185kts
11-May-23 18:35 35.480195 -114.441900 299 8558ft 185kts
11-May-23 18:36 35.480195 -114.441900 299 8558ft 185kts
11-May-23 18:37 35.496691 -114.478373 299 8556ft 186kts
11-May-23 18:38 35.521513 -114.533437 299 8555ft 186kts
11-May-23 18:39 35.546469 -114.589149 299 8533ft 187kts
11-May-23 18:40 35.567625 -114.640401 296 8525ft 187kts
11-May-23 18:41 35.589330 -114.697844 294 8587ft 186kts
11-May-23 18:42 35.610099 -114.756103 293 8588ft 187kts
11-May-23 18:43 35.628684 -114.811197 295 8151ft 161kts
11-May-23 18:44 35.646264 -114.859474 294 7737ft 140kts
11-May-23 18:45 35.661988 -114.903382 294 7635ft 135kts
11-May-23 18:46 35.680056 -114.944581 302 7551ft 137kts
11-May-23 18:47 35.700908 -114.983823 303 7387ft 141kts
11-May-23 18:48 35.721854 -115.024810 294 7245ft 142kts
11-May-23 18:49 35.737379 -115.068299 295 6962ft 142kts
11-May-23 18:50 35.754046 -115.111747 295 6598ft 139kts
11-May-23 18:51 35.770539 -115.151753 296 6465ft 133kts
11-May-23 18:52 35.800307 -115.174406 2 6109ft 140kts
11-May-23 18:53 35.836366 -115.167332 7 6038ft 116kts
11-May-23 18:54 35.866152 -115.158699 14 5088ft 109kts
11-May-23 18:55 35.893772 -115.150116 8 4250ft 107kts
11-May-23 18:56 35.915720 -115.129284 15 3762ft 112kts
11-May-23 18:57 35.945489 -115.123678 10 3371ft 100kts
11-May-23 18:58 35.972042 -115.115190 16 3233ft 100kts
11-May-23 18:59 35.994562 -115.121220 287 3065ft 91kts
11-May-23 19:00 35.983120 -115.135449 178 2574ft 76kts
11-May-23 19:01 35.974737 -115.135447 187 2496ft 4kts
11-May-23 19:02 35.974495 -115.136497 269 2496ft 12kts
11-May-23 19:03 35.977091 -115.138254 297 2496ft 2kts

Navigation Log

Ident Type
Flight plan parsing failed, navigation log unavailable